Decoded Metar for KFFC (PEACHTREE CITY in GA, USA) (IATA:FFC) | Meteo·Mobile Aviation Weather
aviador You're here:

KFFC Decoded Metar

PEACHTREE CITY in GA, USA
Report Time2018-09-21 10:53:00
UTC Time2018-09-21 11:29:43
Flight Rules vfr VFR
WindCalm
Visibility9999 m
Phenomena:N/A
Clouds:N/A
Expected CloudBase > 400 ft AGL from Temp-Dew spread
CeilingNone
Temp19°C (ISA +6)
Dew Point18°C (94% RH)
QNH1022 hPa
Density Alt1,503 ft
Elevation860 ft
Report Wrong Elevation
Raw Report
METAR KFFC 211053Z AUTO 00000KT 7SM CLR 19/18 A3018 RMK AO2 SLP215
T01890178=

Extra information for KFFC:More info

Metar Taf Metar & Taf Last 4 Metars F.Rules Stats Wind Profile Meteogram Temp Stats Airport Information Weather charts Add Link Nearby VenuesMetar ALERT Operation Metar Decoded Social comments

AIRNAV info for KFFC